createdAt,value
2022-12-27T00:01:24.117Z,38.16
2022-12-27T00:03:53.273Z,38.19
2022-12-27T00:06:27.243Z,38.11
2022-12-27T00:08:56.372Z,38.10
2022-12-27T00:11:30.463Z,38.19
2022-12-27T00:14:01.407Z,38.13
2022-12-27T00:16:30.826Z,38.16
2022-12-27T00:19:00.307Z,38.00
2022-12-27T00:21:31.753Z,38.18
2022-12-27T00:24:02.484Z,38.17
2022-12-27T00:26:33.899Z,38.13
2022-12-27T00:29:03.684Z,38.16
2022-12-27T00:31:34.435Z,38.12
2022-12-27T00:34:06.279Z,37.91
2022-12-27T00:36:37.768Z,38.22
2022-12-27T00:39:07.528Z,38.24
2022-12-27T00:41:36.433Z,38.10
2022-12-27T00:44:05.687Z,38.11
2022-12-27T00:46:35.188Z,38.02
2022-12-27T00:49:04.676Z,38.05
2022-12-27T00:51:34.247Z,38.02
2022-12-27T00:54:05.688Z,38.06
2022-12-27T00:56:34.808Z,38.11
2022-12-27T00:59:05.311Z,37.96
2022-12-27T01:01:37.675Z,38.05
2022-12-27T01:04:08.251Z,38.02
2022-12-27T01:06:38.157Z,38.08
2022-12-27T01:09:08.861Z,38.00
2022-12-27T01:11:38.189Z,38.02
2022-12-27T01:14:08.816Z,38.08
2022-12-27T01:16:38.412Z,38.11
2022-12-27T01:19:07.216Z,38.04
2022-12-27T01:21:36.745Z,37.94
2022-12-27T01:24:10.141Z,38.05
2022-12-27T01:26:38.662Z,38.18
2022-12-27T01:29:07.717Z,38.09
2022-12-27T01:31:38.026Z,37.95
2022-12-27T01:34:07.240Z,38.01
2022-12-27T01:36:36.298Z,38.03
2022-12-27T01:39:05.936Z,37.90
2022-12-27T01:41:56.228Z,38.12
2022-12-27T01:45:06.221Z,38.14
2022-12-27T01:47:42.588Z,37.95
2022-12-27T01:50:17.741Z,38.06
2022-12-27T01:52:50.983Z,37.93
2022-12-27T01:55:25.502Z,38.03
2022-12-27T01:58:00.632Z,37.98
2022-12-27T02:00:29.898Z,38.11
2022-12-27T02:02:59.785Z,37.99
2022-12-27T02:05:29.682Z,37.98
2022-12-27T02:08:07.701Z,38.10
2022-12-27T02:10:38.701Z,37.97
2022-12-27T02:13:10.481Z,37.99
2022-12-27T02:15:39.857Z,38.01
2022-12-27T02:18:09.089Z,37.97
2022-12-27T02:20:56.338Z,37.82
2022-12-27T02:24:04.153Z,37.93
2022-12-27T02:26:55.939Z,37.80
2022-12-27T02:29:44.151Z,37.79
2022-12-27T02:32:18.642Z,37.91
2022-12-27T02:34:55.197Z,37.96
2022-12-27T02:37:27.719Z,37.94
2022-12-27T02:40:19.328Z,37.91
2022-12-27T02:43:06.965Z,37.98
2022-12-27T02:46:00.515Z,37.87
2022-12-27T02:48:46.504Z,37.85
2022-12-27T02:51:50.941Z,37.92
2022-12-27T02:54:38.401Z,37.93
2022-12-27T02:57:20.419Z,37.88
2022-12-27T03:00:24.278Z,37.83
2022-12-27T03:03:24.612Z,37.98
2022-12-27T03:06:37.766Z,37.88
2022-12-27T03:09:34.880Z,38.01
2022-12-27T03:12:26.445Z,37.90
2022-12-27T03:15:18.938Z,37.92
2022-12-27T03:17:55.057Z,37.83
2022-12-27T03:20:43.746Z,37.78
2022-12-27T03:23:31.761Z,37.90
2022-12-27T03:26:02.770Z,37.88
2022-12-27T03:28:51.416Z,37.95
2022-12-27T03:31:43.233Z,37.82
2022-12-27T03:34:29.584Z,37.79
2022-12-27T03:37:23.279Z,37.82
2022-12-27T03:39:58.866Z,37.95
2022-12-27T03:42:47.577Z,37.98
2022-12-27T03:45:17.432Z,37.85
2022-12-27T03:47:49.562Z,37.82
2022-12-27T03:50:26.636Z,37.87
2022-12-27T03:53:03.618Z,37.93
2022-12-27T03:55:33.702Z,37.85
2022-12-27T03:58:02.939Z,37.83
2022-12-27T04:00:32.090Z,37.89
2022-12-27T04:03:01.249Z,37.91
2022-12-27T04:05:30.181Z,37.84
2022-12-27T04:08:17.407Z,37.81
2022-12-27T04:11:05.373Z,37.76
2022-12-27T04:13:51.385Z,37.74
2022-12-27T04:16:37.025Z,37.86
2022-12-27T04:19:23.081Z,37.75
2022-12-27T04:22:08.819Z,37.83
2022-12-27T04:24:56.809Z,37.76
2022-12-27T04:27:42.853Z,37.86
2022-12-27T04:30:29.930Z,37.77
2022-12-27T04:33:16.059Z,37.75
2022-12-27T04:35:45.615Z,37.70
2022-12-27T04:38:14.699Z,37.79
2022-12-27T04:41:02.388Z,37.72
2022-12-27T04:43:56.930Z,37.86
2022-12-27T04:46:45.048Z,37.80
2022-12-27T04:49:39.818Z,37.78
2022-12-27T04:52:32.728Z,37.80
2022-12-27T04:55:05.615Z,37.74
2022-12-27T04:57:36.546Z,37.74
2022-12-27T05:00:22.987Z,37.91
2022-12-27T05:02:51.912Z,37.74
2022-12-27T05:05:21.451Z,37.78
2022-12-27T05:08:08.262Z,37.86
2022-12-27T05:10:54.355Z,37.78
2022-12-27T05:13:42.347Z,37.62
2022-12-27T05:16:11.975Z,37.75
2022-12-27T05:18:41.531Z,37.65
2022-12-27T05:21:10.831Z,37.76
2022-12-27T05:24:03.367Z,37.64
2022-12-27T05:26:35.777Z,37.74
2022-12-27T05:29:09.048Z,37.72
2022-12-27T05:31:38.471Z,37.72
2022-12-27T05:34:08.563Z,37.70
2022-12-27T05:36:38.011Z,37.61
2022-12-27T05:39:07.464Z,37.85
2022-12-27T05:41:36.459Z,37.82
2022-12-27T05:44:07.846Z,37.66
2022-12-27T05:46:37.309Z,37.65
2022-12-27T05:49:06.657Z,37.76
2022-12-27T05:51:35.773Z,37.82
2022-12-27T05:54:04.802Z,37.80
2022-12-27T05:56:35.810Z,37.81
2022-12-27T05:59:08.523Z,37.77
2022-12-27T06:01:37.679Z,37.80
2022-12-27T06:04:07.253Z,37.64
2022-12-27T06:06:37.010Z,37.70
2022-12-27T06:09:06.511Z,37.73
2022-12-27T06:11:35.760Z,37.72
2022-12-27T06:14:06.344Z,37.44
2022-12-27T06:16:35.480Z,37.64
2022-12-27T06:19:04.363Z,37.79
2022-12-27T06:21:32.942Z,37.56
2022-12-27T06:24:01.653Z,37.75
2022-12-27T06:26:31.703Z,37.66
2022-12-27T06:29:00.910Z,37.60
2022-12-27T06:31:31.998Z,37.79
2022-12-27T06:34:01.103Z,37.67
2022-12-27T06:36:30.692Z,37.80
2022-12-27T06:38:59.860Z,37.64
2022-12-27T06:41:28.797Z,37.62
2022-12-27T06:44:00.002Z,37.73
2022-12-27T06:46:29.139Z,37.72
2022-12-27T06:49:00.547Z,37.60
2022-12-27T06:51:29.954Z,37.60
2022-12-27T06:53:59.148Z,37.73
2022-12-27T06:56:28.571Z,37.64
2022-12-27T06:58:57.439Z,37.62
2022-12-27T07:01:28.583Z,37.58
2022-12-27T07:04:02.239Z,37.68
2022-12-27T07:06:33.255Z,37.72
2022-12-27T07:09:04.153Z,37.58
2022-12-27T07:11:34.830Z,37.61
2022-12-27T07:14:04.770Z,37.71
2022-12-27T07:16:34.423Z,37.62
2022-12-27T07:19:06.740Z,37.68
2022-12-27T07:21:39.204Z,37.55
2022-12-27T07:24:09.681Z,37.58
2022-12-27T07:26:40.206Z,37.73
2022-12-27T07:29:09.400Z,37.51
2022-12-27T07:31:38.477Z,37.63
2022-12-27T07:34:09.860Z,37.61
2022-12-27T07:36:41.536Z,37.52
2022-12-27T07:39:11.307Z,37.66
2022-12-27T07:41:40.589Z,37.70
2022-12-27T07:44:09.810Z,37.65
2022-12-27T07:46:38.998Z,37.70
2022-12-27T07:49:17.366Z,37.45
2022-12-27T07:51:47.030Z,37.62
2022-12-27T07:54:17.559Z,37.59
2022-12-27T07:56:46.639Z,37.65
2022-12-27T07:59:16.418Z,37.59
2022-12-27T08:01:58.934Z,37.63
2022-12-27T08:04:30.436Z,37.50
2022-12-27T08:07:04.010Z,37.69
2022-12-27T08:09:36.796Z,37.33
2022-12-27T08:12:06.264Z,37.46
2022-12-27T08:14:35.491Z,37.56
2022-12-27T08:17:07.893Z,37.55
2022-12-27T08:19:38.945Z,37.47
2022-12-27T08:22:08.245Z,37.54
2022-12-27T08:24:38.873Z,37.50
2022-12-27T08:27:08.263Z,37.46
2022-12-27T08:29:37.586Z,37.65
2022-12-27T08:32:07.449Z,37.55
2022-12-27T08:34:38.536Z,37.50
2022-12-27T08:37:07.554Z,37.57
2022-12-27T08:39:36.624Z,37.48
2022-12-27T08:42:06.172Z,37.50
2022-12-27T08:44:34.674Z,37.46
2022-12-27T08:47:04.949Z,37.53
2022-12-27T08:49:34.136Z,37.47
2022-12-27T08:52:05.017Z,37.55
2022-12-27T08:54:33.679Z,37.39
2022-12-27T08:57:03.142Z,37.49
2022-12-27T08:59:32.252Z,37.47
2022-12-27T09:02:00.983Z,37.34
2022-12-27T09:04:29.850Z,37.30
2022-12-27T09:06:58.555Z,37.43
2022-12-27T09:09:30.458Z,37.37
2022-12-27T09:12:02.887Z,37.30
2022-12-27T09:14:34.451Z,37.39
2022-12-27T09:17:03.689Z,37.36
2022-12-27T09:19:32.628Z,37.38
2022-12-27T09:22:01.998Z,37.25
2022-12-27T09:24:32.605Z,37.33
2022-12-27T09:27:01.718Z,37.25
2022-12-27T09:29:30.913Z,37.23
2022-12-27T09:32:00.300Z,37.27
2022-12-27T09:34:29.859Z,37.32
2022-12-27T09:36:58.977Z,37.33
2022-12-27T09:39:28.058Z,37.08
2022-12-27T09:45:01.675Z,37.18
2022-12-27T09:47:34.856Z,37.21
2022-12-27T09:50:06.900Z,37.32
2022-12-27T09:52:42.269Z,37.13
2022-12-27T09:55:18.727Z,37.15
2022-12-27T09:57:51.063Z,37.18
2022-12-27T10:00:35.166Z,37.12
2022-12-27T10:03:07.268Z,37.19
2022-12-27T10:05:39.942Z,37.02
2022-12-27T10:08:30.860Z,36.93
2022-12-27T10:11:10.606Z,37.14
2022-12-27T10:13:50.208Z,36.97
2022-12-27T10:16:30.450Z,37.04
2022-12-27T10:19:18.486Z,36.93
2022-12-27T10:22:03.918Z,36.91
2022-12-27T10:24:41.114Z,37.09
2022-12-27T10:27:18.506Z,36.94
2022-12-27T10:29:50.687Z,37.10
2022-12-27T10:32:19.299Z,37.02
2022-12-27T10:34:49.929Z,37.03
2022-12-27T10:37:22.789Z,37.12
2022-12-27T10:39:52.537Z,37.01
2022-12-27T10:42:37.739Z,36.88
2022-12-27T10:45:36.714Z,36.85
2022-12-27T10:48:22.255Z,36.85
2022-12-27T10:50:59.644Z,36.97
2022-12-27T10:53:38.772Z,36.94
2022-12-27T10:56:19.638Z,36.80
2022-12-27T10:58:58.450Z,37.02
2022-12-27T11:01:50.925Z,36.78
2022-12-27T11:07:22.778Z,36.93
2022-12-27T11:09:52.237Z,36.90
2022-12-27T11:12:24.732Z,36.98
2022-12-27T11:14:58.946Z,36.96
2022-12-27T11:17:37.350Z,36.87
2022-12-27T11:20:20.878Z,36.94
2022-12-27T11:22:53.994Z,36.91
2022-12-27T11:25:24.158Z,37.00
2022-12-27T11:27:55.262Z,36.96
2022-12-27T11:30:27.424Z,36.92
2022-12-27T11:33:02.567Z,37.08
2022-12-27T11:35:31.858Z,36.88
2022-12-27T11:38:00.751Z,36.83
2022-12-27T11:40:35.032Z,36.89
2022-12-27T11:43:10.630Z,36.53
2022-12-27T11:45:42.785Z,36.92
2022-12-27T11:48:22.787Z,36.73
2022-12-27T11:51:06.373Z,36.72
2022-12-27T11:54:08.537Z,36.59
2022-12-27T11:56:41.722Z,36.84
2022-12-27T11:59:30.155Z,36.56
2022-12-27T12:02:33.053Z,36.39
2022-12-27T12:05:59.767Z,36.65
2022-12-27T12:08:48.107Z,36.49
2022-12-27T12:11:27.559Z,36.68
2022-12-27T12:14:29.446Z,36.45
2022-12-27T12:17:18.816Z,36.53
2022-12-27T12:20:05.828Z,36.68
2022-12-27T12:22:47.724Z,36.51
2022-12-27T12:25:56.044Z,36.39
2022-12-27T12:28:59.818Z,36.55
2022-12-27T12:31:46.909Z,36.61
2022-12-27T12:34:33.799Z,36.51
2022-12-27T12:37:22.831Z,36.37
2022-12-27T12:40:21.526Z,36.65
2022-12-27T12:42:58.040Z,36.66
2022-12-27T12:45:40.603Z,36.67
2022-12-27T12:48:36.363Z,36.55
2022-12-27T12:51:45.655Z,36.39
2022-12-27T12:54:48.495Z,36.50
2022-12-27T12:57:31.196Z,36.65
2022-12-27T13:00:25.755Z,36.42
2022-12-27T13:03:23.863Z,36.32
2022-12-27T13:06:00.093Z,36.52
2022-12-27T13:08:35.537Z,36.55
2022-12-27T13:11:20.677Z,36.57
2022-12-27T13:14:08.631Z,36.50
2022-12-27T13:16:48.314Z,36.49
2022-12-27T13:19:40.792Z,36.35
2022-12-27T13:22:18.412Z,36.47
2022-12-27T13:25:05.566Z,36.46
2022-12-27T13:27:39.035Z,36.60
2022-12-27T13:30:20.795Z,36.40
2022-12-27T13:33:13.746Z,36.40
2022-12-27T13:36:01.093Z,36.51
2022-12-27T13:38:44.934Z,36.43
2022-12-27T13:41:30.561Z,36.42
2022-12-27T13:44:31.587Z,36.32
2022-12-27T13:47:44.165Z,36.29
2022-12-27T13:50:36.214Z,36.32
2022-12-27T13:53:25.585Z,36.34
2022-12-27T13:56:05.930Z,36.38
2022-12-27T13:59:27.866Z,36.48
2022-12-27T14:02:20.811Z,36.46
2022-12-27T14:05:13.778Z,36.54
2022-12-27T14:07:58.433Z,36.49
2022-12-27T14:10:36.973Z,36.51
2022-12-27T14:13:09.055Z,36.61
2022-12-27T14:16:07.036Z,36.46
2022-12-27T14:18:49.261Z,36.57
2022-12-27T14:21:37.319Z,36.51
2022-12-27T14:24:19.909Z,36.59
2022-12-27T14:27:15.495Z,36.41
2022-12-27T14:30:19.599Z,36.37
2022-12-27T14:33:11.867Z,36.51
2022-12-27T14:36:23.801Z,36.55
2022-12-27T14:39:22.845Z,36.48
2022-12-27T14:42:27.525Z,36.38
2022-12-27T14:45:57.440Z,36.35
2022-12-27T14:48:53.556Z,36.47
2022-12-27T14:52:04.757Z,36.51
2022-12-27T14:55:22.923Z,36.49
2022-12-27T14:58:15.714Z,36.47
2022-12-27T15:01:05.658Z,36.40
2022-12-27T15:03:55.525Z,36.58
2022-12-27T15:06:44.982Z,36.49
2022-12-27T15:09:32.098Z,36.65
2022-12-27T15:12:15.806Z,36.55
2022-12-27T15:15:21.368Z,36.41
2022-12-27T15:18:30.359Z,36.46
2022-12-27T15:21:18.642Z,36.55
2022-12-27T15:23:55.843Z,36.59
2022-12-27T15:26:52.535Z,36.70
2022-12-27T15:29:37.693Z,36.42
2022-12-27T15:32:31.891Z,36.31
2022-12-27T15:35:37.460Z,36.48
2022-12-27T15:38:14.161Z,36.71
2022-12-27T15:40:56.448Z,36.56
2022-12-27T15:43:55.809Z,36.50
2022-12-27T15:46:53.403Z,36.53
2022-12-27T15:49:57.418Z,36.55
2022-12-27T15:52:40.505Z,36.57
2022-12-27T15:55:29.075Z,36.29
2022-12-27T15:58:15.522Z,36.58
2022-12-27T16:00:48.137Z,36.62
2022-12-27T16:03:39.250Z,36.38
2022-12-27T16:06:37.096Z,36.62
2022-12-27T16:09:40.980Z,36.44
2022-12-27T16:12:16.787Z,36.58
2022-12-27T16:14:47.298Z,36.64
2022-12-27T16:17:34.665Z,36.57
2022-12-27T16:20:43.319Z,36.57
2022-12-27T16:23:16.334Z,36.44
2022-12-27T16:25:47.640Z,36.60
2022-12-27T16:28:28.506Z,36.54
2022-12-27T16:31:09.128Z,36.60
2022-12-27T16:33:42.650Z,36.64
2022-12-27T16:36:33.832Z,36.50
2022-12-27T16:39:49.613Z,36.53
2022-12-27T16:42:33.886Z,36.59
2022-12-27T16:45:07.149Z,36.65
2022-12-27T16:47:50.101Z,36.50
2022-12-27T16:50:43.086Z,36.65
2022-12-27T16:53:42.648Z,36.63
2022-12-27T16:56:31.929Z,36.55
2022-12-27T16:59:02.137Z,36.60
2022-12-27T17:01:48.449Z,36.64
2022-12-27T17:04:59.873Z,36.58
2022-12-27T17:07:52.823Z,36.54
2022-12-27T17:10:41.252Z,36.63
2022-12-27T17:13:22.144Z,36.70
2022-12-27T17:16:01.695Z,36.75
2022-12-27T17:18:34.782Z,36.97
2022-12-27T17:21:08.770Z,36.65
2022-12-27T17:23:45.345Z,36.66
2022-12-27T17:26:30.969Z,36.64
2022-12-27T17:29:13.128Z,36.56
2022-12-27T17:31:50.738Z,36.62
2022-12-27T17:34:32.726Z,36.74
2022-12-27T17:37:12.972Z,36.67
2022-12-27T17:39:57.878Z,36.61
2022-12-27T17:42:54.033Z,36.55
2022-12-27T17:45:37.868Z,36.56
2022-12-27T17:48:23.797Z,36.64
2022-12-27T17:50:55.535Z,36.57
2022-12-27T17:53:42.697Z,36.66
2022-12-27T17:56:37.061Z,36.55
2022-12-27T17:59:11.975Z,36.70
2022-12-27T18:01:48.868Z,36.77
2022-12-27T18:04:26.845Z,36.68
2022-12-27T18:06:57.125Z,36.69
2022-12-27T18:09:36.845Z,36.63
2022-12-27T18:12:14.395Z,36.63
2022-12-27T18:14:43.844Z,36.58
2022-12-27T18:17:29.063Z,36.56
2022-12-27T18:19:58.644Z,36.67
2022-12-27T18:22:29.232Z,36.62
2022-12-27T18:24:57.791Z,36.68
2022-12-27T18:27:28.109Z,36.67
2022-12-27T18:29:56.625Z,36.73
2022-12-27T18:32:27.607Z,36.83
2022-12-27T18:34:59.339Z,36.61
2022-12-27T18:37:29.401Z,36.68
2022-12-27T18:40:01.324Z,36.50
2022-12-27T18:42:34.963Z,36.66
2022-12-27T18:45:26.057Z,36.64
2022-12-27T18:51:35.329Z,36.58
2022-12-27T19:16:22.337Z,36.59
2022-12-27T19:18:54.628Z,36.68
2022-12-27T19:21:31.794Z,36.71
2022-12-27T19:24:19.684Z,36.68
2022-12-27T19:26:47.775Z,36.76
2022-12-27T19:29:19.095Z,36.67
2022-12-27T19:31:56.935Z,36.62
2022-12-27T19:34:28.286Z,36.76
2022-12-27T19:36:57.539Z,36.65
2022-12-27T19:39:28.859Z,36.62
2022-12-27T19:42:01.337Z,36.78
2022-12-27T19:44:30.128Z,36.83
2022-12-27T19:46:59.737Z,36.66
2022-12-27T19:49:42.685Z,36.71
2022-12-27T19:52:16.796Z,36.59
2022-12-27T19:54:45.454Z,36.63
2022-12-27T19:57:13.980Z,36.71
2022-12-27T19:59:42.676Z,36.65
2022-12-27T20:02:12.369Z,36.63
2022-12-27T20:04:40.615Z,36.73
2022-12-27T20:07:19.436Z,36.73
2022-12-27T20:09:47.638Z,36.75
2022-12-27T20:12:17.702Z,36.72
2022-12-27T20:14:48.229Z,36.84
2022-12-27T20:17:17.794Z,36.73
2022-12-27T20:19:46.410Z,36.66
2022-12-27T20:22:15.078Z,36.71
2022-12-27T20:24:43.311Z,36.74
2022-12-27T20:27:12.291Z,36.78
2022-12-27T20:29:41.694Z,36.69
2022-12-27T20:32:09.870Z,36.67
2022-12-27T20:34:40.040Z,36.61
2022-12-27T20:37:08.362Z,36.69
2022-12-27T20:39:36.449Z,36.72
2022-12-27T20:42:05.124Z,36.65
2022-12-27T20:44:33.597Z,36.63
2022-12-27T20:47:01.745Z,36.68
2022-12-27T20:49:32.725Z,36.63
2022-12-27T20:52:02.632Z,36.74
2022-12-27T20:54:31.709Z,36.65
2022-12-27T20:57:01.414Z,36.65
2022-12-27T20:59:30.670Z,36.73
2022-12-27T21:01:59.664Z,36.58
2022-12-27T21:04:28.264Z,36.69
2022-12-27T21:06:56.478Z,36.74
2022-12-27T21:09:25.969Z,36.65
2022-12-27T21:11:54.438Z,36.66
2022-12-27T21:14:22.947Z,36.76
2022-12-27T21:16:51.486Z,36.71
2022-12-27T21:19:22.498Z,36.71
2022-12-27T21:21:51.023Z,36.72
2022-12-27T21:24:19.521Z,36.59
2022-12-27T21:26:54.668Z,36.65
2022-12-27T21:29:24.631Z,36.79
2022-12-27T21:31:53.495Z,36.70
2022-12-27T21:34:22.323Z,36.71
2022-12-27T21:36:53.121Z,36.75
2022-12-27T21:39:21.695Z,36.70
2022-12-27T21:41:51.393Z,36.70
2022-12-27T21:44:21.314Z,36.75
2022-12-27T21:46:50.917Z,36.64
2022-12-27T21:49:21.624Z,36.70
2022-12-27T21:51:49.922Z,36.52
2022-12-27T21:54:18.631Z,36.62
2022-12-27T21:56:46.971Z,36.66
2022-12-27T21:59:19.222Z,36.80
2022-12-27T22:01:51.424Z,36.66
2022-12-27T22:04:22.052Z,36.65
2022-12-27T22:06:50.832Z,36.71
2022-12-27T22:09:19.787Z,36.70
2022-12-27T22:11:48.200Z,36.56
2022-12-27T22:14:24.896Z,36.73
2022-12-27T22:16:54.073Z,36.70
2022-12-27T22:19:22.345Z,36.55
2022-12-27T22:21:50.534Z,36.61
2022-12-27T22:24:20.036Z,36.67
2022-12-27T22:26:50.706Z,36.69
2022-12-27T22:29:21.862Z,36.74
2022-12-27T22:31:50.028Z,36.85
2022-12-27T22:34:18.195Z,36.71
2022-12-27T22:36:46.643Z,36.67
2022-12-27T22:39:14.783Z,36.63
2022-12-27T22:41:42.920Z,36.70
2022-12-27T22:44:12.883Z,36.66
2022-12-27T22:47:25.101Z,36.63
2022-12-27T22:49:31.413Z,36.68
2022-12-27T22:51:59.590Z,36.68
2022-12-27T22:55:03.899Z,36.68
2022-12-27T22:57:16.834Z,36.57
2022-12-27T22:59:44.964Z,36.66
2022-12-27T23:02:15.390Z,36.66
2022-12-27T23:04:43.895Z,36.75
2022-12-27T23:07:12.204Z,36.84
2022-12-27T23:09:43.435Z,36.63
2022-12-27T23:12:12.527Z,36.68
2022-12-27T23:14:41.107Z,36.59
2022-12-27T23:17:09.477Z,36.71
2022-12-27T23:19:39.013Z,36.67
2022-12-27T23:22:07.626Z,36.72
2022-12-27T23:24:35.776Z,36.62
2022-12-27T23:27:04.795Z,36.60
2022-12-27T23:29:33.023Z,36.69
2022-12-27T23:32:01.737Z,36.68
2022-12-27T23:34:29.986Z,36.86
2022-12-27T23:37:00.240Z,36.57
2022-12-27T23:39:30.149Z,36.73
2022-12-27T23:41:58.339Z,36.83
2022-12-27T23:44:32.990Z,36.62
2022-12-27T23:47:03.475Z,36.72
2022-12-27T23:49:31.705Z,36.58
2022-12-27T23:52:01.465Z,36.69
2022-12-27T23:54:29.575Z,36.74
2022-12-27T23:56:57.819Z,36.70
2022-12-27T23:59:25.939Z,36.69
